| time (UTC) | temp F | wind direction | speed knots | gust knots | rain 1hr in | rain 24hr in | rain mn in | humidity % | barometer mb |
| 20260507110318 | 67 | 272 | 0.9 | 7.0 | 0.00 | 0.00 | 0.00 | 53 | 1025.1 |
| 20260507104818 | 69 | 313 | 0.0 | 3.5 | 0.00 | 0.00 | 0.00 | 53 | 1025.1 |
| 20260507103319 | 68 | 315 | 1.7 | 10.4 | 0.00 | 0.00 | 0.00 | 53 | 1025.0 |
| 20260507101818 | 68 | 312 | 0.9 | 7.0 | 0.00 | 0.00 | 0.00 | 52 | 1024.9 |
| 20260507100318 | 67 | 247 | 1.7 | 7.0 | 0.00 | 0.00 | 0.00 | 53 | 1025.1 |
| 20260507094818 | 69 | 256 | 2.6 | 10.4 | 0.00 | 0.00 | 0.00 | 51 | 1025.4 |
| 20260507093317 | 69 | 312 | 3.5 | 13.9 | 0.00 | 0.00 | 0.00 | 52 | 1025.1 |
| 20260507091819 | 68 | 133 | 2.6 | 18.2 | 0.00 | 0.00 | 0.00 | 51 | 1025.0 |
| 20260507090318 | 67 | 297 | 1.7 | 13.9 | 0.00 | 0.00 | 0.00 | 56 | 1024.7 |
| 20260507084818 | 68 | 105 | 1.7 | 7.0 | 0.00 | 0.00 | 0.00 | 54 | 1024.7 |
| 20260507083318 | 66 | 304 | 2.6 | 13.9 | 0.00 | 0.00 | 0.00 | 56 | 1024.3 |
| 20260507081818 | 65 | 308 | 1.7 | 10.4 | 0.00 | 0.00 | 0.00 | 57 | 1024.4 |
| 20260507080318 | 66 | 272 | 0.0 | 3.5 | 0.00 | 0.00 | 0.00 | 59 | 1024.2 |
| 20260507074818 | 65 | 231 | 0.0 | 3.5 | 0.00 | 0.00 | 0.00 | 59 | 1024.1 |
| 20260507073317 | 64 | 277 | 0.9 | 3.5 | 0.00 | 0.00 | 0.00 | 60 | 1023.9 |
| 20260507071818 | 63 | 323 | 2.6 | 13.9 | 0.00 | 0.00 | 0.00 | 61 | 1023.8 |
| 20260507070317 | 63 | 280 | 0.9 | 10.4 | 0.00 | 0.00 | 0.00 | 62 | 1023.9 |
| 20260507064817 | 62 | 200 | 1.7 | 7.0 | 0.00 | 0.00 | 0.00 | 64 | 1023.7 |
| 20260507063318 | 62 | 247 | 0.9 | 3.5 | 0.00 | 0.00 | 0.00 | 65 | 1023.4 |
| 20260507061818 | 61 | 277 | 1.7 | 7.0 | 0.00 | 0.00 | 0.00 | 66 | 1023.2 |
| 20260507060317 | 61 | 264 | 1.7 | 10.4 | 0.00 | 0.00 | 0.00 | 67 | 1023.2 |
| 20260507054817 | 60 | 245 | 1.7 | 7.0 | 0.00 | 0.00 | 0.00 | 68 | 1023.1 |
| 20260507053318 | 60 | 313 | 2.6 | 13.9 | 0.00 | 0.00 | 0.00 | 69 | 1023.3 |
| 20260507051818 | 60 | 300 | 0.0 | 3.5 | 0.00 | 0.00 | 0.00 | 75 | 1023.0 |
| 20260507050318 | 60 | 279 | 0.0 | 0.0 | 0.00 | 0.00 | 0.00 | 74 | 1022.4 |
| 20260507044824 | 60 | 257 | 0.0 | 3.5 | 0.00 | 0.00 | 0.00 | 74 | 1022.3 |
| 20260507043317 | 59 | 250 | 0.9 | 7.0 | 0.00 | 0.00 | 0.00 | 76 | 1022.1 |
| 20260507041818 | 59 | 298 | 0.9 | 3.5 | 0.00 | 0.00 | 0.00 | 77 | 1021.8 |
| 20260507040317 | 59 | 283 | 0.0 | 3.5 | 0.00 | 0.00 | 0.00 | 78 | 1021.7 |
| 20260507034817 | 58 | 277 | 0.0 | 0.0 | 0.00 | 0.00 | 0.00 | 80 | 1021.7 |
| 20260507033318 | 58 | 273 | 0.0 | 0.0 | 0.00 | 0.00 | 0.00 | 80 | 1021.6 |
| 20260507031818 | 58 | 247 | 0.0 | 0.0 | 0.00 | 0.00 | 0.00 | 82 | 1021.7 |
| 20260507030318 | 57 | 264 | 0.0 | 0.0 | 0.00 | 0.00 | 0.00 | 83 | 1021.3 |
| 20260507024817 | 57 | 264 | 0.0 | 0.0 | 0.00 | 0.00 | 0.00 | 84 | 1021.4 |
| 20260507023318 | 57 | 275 | 0.0 | 0.0 | 0.00 | 0.00 | 0.00 | 85 | 1021.2 |
| 20260507021819 | 58 | 16 | 0.0 | 3.5 | 0.00 | 0.00 | 0.00 | 84 | 1020.9 |
| 20260507020317 | 59 | 266 | 0.0 | 0.0 | 0.00 | 0.00 | 0.00 | 83 | 1021.2 |
| 20260507014818 | 59 | 233 | 0.0 | 0.0 | 0.00 | 0.00 | 0.00 | 82 | 1021.0 |
| 20260507013318 | 59 | 242 | 0.0 | 0.0 | 0.00 | 0.00 | 0.00 | 82 | 1021.0 |
| 20260507011818 | 59 | 98 | 0.0 | 3.5 | 0.00 | 0.00 | 0.00 | 81 | 1020.7 |
| 20260507010318 | 59 | 159 | 0.0 | 0.0 | 0.00 | 0.00 | 0.00 | 80 | 1020.8 |
| 20260507004818 | 59 | 285 | 0.0 | 3.5 | 0.00 | 0.00 | 0.00 | 80 | 1020.8 |
| 20260507003319 | 60 | 259 | 0.9 | 3.5 | 0.00 | 0.00 | 0.00 | 78 | 1020.4 |
| 20260507001817 | 61 | 283 | 0.0 | 0.0 | 0.00 | 0.00 | 0.00 | 76 | 1020.3 |
| 20260507000318 | 61 | 83 | 0.9 | 7.0 | 0.00 | 0.00 | 0.00 | 75 | 1020.2 |
| 20260506234818 | 62 | 112 | 1.7 | 7.0 | 0.00 | 0.00 | 0.00 | 74 | 1020.2 |
| 20260506233317 | 62 | 106 | 2.6 | 18.2 | 0.00 | 0.00 | 0.00 | 73 | 1020.1 |
| 20260506231817 | 63 | 178 | 0.9 | 7.0 | 0.00 | 0.00 | 0.00 | 73 | 1019.9 |
| 20260506230317 | 63 | 89 | 0.9 | 7.0 | 0.00 | 0.00 | 0.00 | 72 | 1019.8 |
| 20260506224817 | 63 | 239 | 3.5 | 28.7 | 0.00 | 0.00 | 0.00 | 72 | 1019.9 |
| 20260506223318 | 63 | 358 | 3.5 | 18.2 | 0.00 | 0.00 | 0.00 | 72 | 1019.6 |
| 20260506221817 | 64 | 177 | 0.9 | 10.4 | 0.00 | 0.00 | 0.00 | 72 | 1019.2 |
| 20260506220317 | 64 | 145 | 7.0 | 35.6 | 0.00 | 0.00 | 0.00 | 71 | 1019.0 |
| 20260506214818 | 64 | 175 | 3.5 | 18.2 | 0.00 | 0.00 | 0.00 | 71 | 1019.3 |
| 20260506213318 | 64 | 232 | 1.7 | 10.4 | 0.00 | 0.00 | 0.00 | 70 | 1019.0 |
| 20260506211817 | 65 | 217 | 4.3 | 21.7 | 0.00 | 0.00 | 0.00 | 70 | 1019.2 |
| 20260506210317 | 65 | 224 | 3.5 | 32.2 | 0.00 | 0.00 | 0.00 | 69 | 1019.3 |
| 20260506204818 | 65 | 275 | 2.6 | 10.4 | 0.00 | 0.00 | 0.00 | 69 | 1019.2 |
| 20260506203317 | 65 | 176 | 2.6 | 13.9 | 0.00 | 0.00 | 0.00 | 68 | 1019.0 |
| 20260506201818 | 66 | 175 | 2.6 | 13.9 | 0.00 | 0.00 | 0.00 | 66 | 1018.9 |
| 20260506200318 | 66 | 116 | 5.2 | 21.7 | 0.00 | 0.00 | 0.00 | 65 | 1019.1 |
| 20260506194817 | 67 | 252 | 2.6 | 18.2 | 0.00 | 0.00 | 0.00 | 65 | 1018.7 |
| 20260506193318 | 67 | 169 | 2.6 | 21.7 | 0.00 | 0.00 | 0.00 | 64 | 1018.6 |
| 20260506191818 | 67 | 185 | 1.7 | 10.4 | 0.00 | 0.00 | 0.00 | 64 | 1018.7 |
| 20260506190317 | 67 | 225 | 3.5 | 13.9 | 0.00 | 0.00 | 0.00 | 62 | 1018.5 |
| 20260506184818 | 68 | 203 | 4.3 | 21.7 | 0.00 | 0.00 | 0.00 | 61 | 1018.4 |
| 20260506183318 | 68 | 120 | 2.6 | 13.9 | 0.00 | 0.00 | 0.00 | 61 | 1018.3 |
| 20260506181818 | 69 | 203 | 3.5 | 21.7 | 0.00 | 0.00 | 0.00 | 60 | 1018.3 |
| 20260506180317 | 69 | 205 | 3.5 | 21.7 | 0.00 | 0.00 | 0.00 | 59 | 1018.1 |
| 20260506174817 | 70 | 187 | 0.9 | 7.0 | 0.00 | 0.00 | 0.00 | 59 | 1018.0 |
| 20260506173317 | 70 | 202 | 3.5 | 18.2 | 0.00 | 0.00 | 0.00 | 57 | 1017.9 |
| 20260506171817 | 71 | 197 | 2.6 | 13.9 | 0.00 | 0.00 | 0.00 | 55 | 1017.7 |
| 20260506170318 | 72 | 200 | 3.5 | 25.2 | 0.00 | 0.00 | 0.00 | 54 | 1018.1 |
| 20260506164818 | 73 | 159 | 4.3 | 28.7 | 0.00 | 0.00 | 0.00 | 53 | 1017.9 |
| 20260506163318 | 74 | 190 | 2.6 | 13.9 | 0.00 | 0.00 | 0.00 | 51 | 1018.3 |
| 20260506161817 | 74 | 272 | 0.9 | 10.4 | 0.00 | 0.00 | 0.00 | 50 | 1018.4 |
| 20260506160318 | 74 | 126 | 3.5 | 25.2 | 0.00 | 0.00 | 0.00 | 49 | 1018.0 |
| 20260506154817 | 75 | 128 | 6.1 | 32.2 | 0.00 | 0.00 | 0.00 | 48 | 1018.1 |
| 20260506153318 | 76 | 230 | 4.3 | 21.7 | 0.00 | 0.00 | 0.00 | 47 | 1018.3 |
| 20260506151818 | 76 | 250 | 1.7 | 13.9 | 0.00 | 0.00 | 0.00 | 47 | 1018.4 |
| 20260506150318 | 77 | 124 | 5.2 | 25.2 | 0.00 | 0.00 | 0.00 | 46 | 1018.7 |
| 20260506144817 | 75 | 158 | 4.3 | 25.2 | 0.00 | 0.00 | 0.00 | 49 | 1018.6 |
| 20260506143318 | 75 | 164 | 2.6 | 21.7 | 0.00 | 0.00 | 0.00 | 49 | 1018.6 |
| 20260506141817 | 75 | 222 | 1.7 | 10.4 | 0.00 | 0.00 | 0.00 | 49 | 1018.7 |
| 20260506140317 | 76 | 230 | 4.3 | 25.2 | 0.00 | 0.00 | 0.00 | 47 | 1018.9 |
| 20260506134818 | 76 | 138 | 3.5 | 25.2 | 0.00 | 0.00 | 0.00 | 45 | 1018.7 |
| 20260506133317 | 76 | 106 | 4.3 | 21.7 | 0.00 | 0.00 | 0.00 | 46 | 1018.7 |
| 20260506131818 | 76 | 329 | 2.6 | 10.4 | 0.00 | 0.00 | 0.00 | 45 | 1018.8 |
| 20260506130317 | 76 | 181 | 5.2 | 25.2 | 0.00 | 0.00 | 0.00 | 46 | 1019.2 |
| 20260506124817 | 77 | 132 | 2.6 | 10.4 | 0.00 | 0.00 | 0.00 | 46 | 1019.2 |
| 20260506123317 | 78 | 315 | 3.5 | 21.7 | 0.00 | 0.00 | 0.00 | 46 | 1019.5 |
| 20260506121818 | 77 | 237 | 1.7 | 13.9 | 0.00 | 0.00 | 0.00 | 47 | 1019.5 |
| 20260506120317 | 77 | 90 | 3.5 | 18.2 | 0.00 | 0.00 | 0.00 | 47 | 1019.5 |
| 20260506114817 | 77 | 103 | 3.5 | 21.7 | 0.00 | 0.00 | 0.00 | 46 | 1019.7 |
| 20260506113318 | 76 | 122 | 3.5 | 18.2 | 0.00 | 0.00 | 0.00 | 50 | 1019.8 |
| 20260506111818 | 76 | 130 | 6.1 | 28.7 | 0.00 | 0.00 | 0.00 | 49 | 1020.0 |